MET'MAP v2.0
soon released !

Expected late october,
this new version will be
more efficient, smarter,
and hosted on a brand new
server x3 powerfull...
...and still free !


Not compatible ?
Try the mobile version !

LOG IN : | Subscribe | Disclaimer | Who is Orbifly ? |
ICAO code :

TAF - EBBL Klein Brogel AB - 10 Apr 2020 02:38 UTC
Data Sources :     NOAA   


- Airport Elevation : 200 ft
- No reported NOTAMs.


EBBL - Klein Brogel AB

Latest METAR recorded : 2015/08/11 07:55 EBBL 110755Z 28004KT 7000 SCT140 BKN210 22/17 Q1018 WHT WHT BECMG BLU
TAF TAF EBBL
Valid from the 09 at 19:00 until the 10 at 07:00 UTC


091541Z 0919/1007 03008KT 9999 SKC

Source NOAA


MET'MAP, your aeronautical weather chart ! - Copyright ORBIFLY December 2007

Programming & Development : Alexandra Zaïnal
Co-Developer : Marc-Olivier Méhu
Technical & hardware support : Manuel Goepfert
Concept & Financing : Baudouin d'Aumeries